Flight Track Log - Related Links

Times and Time Zones

All times are in EDT time to prevent confusion due to time zone crossing. See the UAL1259 flight status page for this flight to view local times or setup timezone preferences in your user account.

Time Position Orientation Groundspeed Altitude Reporting Facility
EDT Latitude Longitude Course Direction KTS MPH feet Rate Location/Type
Thu 08:11:42 PM 33.9336 -118.4442 305° West 174 200 1,600  Level Los Angeles Center
Thu 08:12:44 PM 33.9264 -118.5203 263° West 230 265 4,500 2,758 Climbing Los Angeles Center
Thu 08:13:46 PM 33.9156 -118.6172 262° West 278 320 7,300 3,000 Climbing Los Angeles Center
Thu 08:14:00 PM 34.0630 -118.8825 296° West  Level FlightAware Approximate
Thu 08:14:48 PM 33.9056 -118.7172 263° West 299 344 10,700  Level Los Angeles Center
Thu 08:15:00 PM 34.1000 -119.0011 270° West  Level FlightAware Approximate
Thu 08:15:50 PM 33.8953 -118.8083 262° West 305 351 13,000  Level Los Angeles Center
Thu 08:16:00 PM 34.1396 -119.1109 305° West  Level FlightAware Approximate
Thu 08:16:52 PM 33.8842 -118.9372 264° West 334 384 14,100  Level Los Angeles Center
Thu 08:17:00 PM 34.1994 -119.2157 305° West  Level FlightAware Approximate
Thu 08:17:54 PM 33.9142 -119.0436 289° West 366 421 17,300  Level Los Angeles Center
Thu 08:18:56 PM 33.9875 -119.1322 315° West 378 435 19,700 2,304 Climbing Los Angeles Center
Thu 08:19:59 PM 34.0644 -119.2261 315° West 394 453 22,100 2,208 Climbing Los Angeles Center
Thu 08:21:01 PM 34.1419 -119.3231 314° West 402 463 24,300 2,016 Climbing Los Angeles Center
Thu 08:22:04 PM 34.2231 -119.4206 315° West 410 472 26,300 2,016 Climbing Los Angeles Center
Thu 08:23:06 PM 34.3222 -119.5444 314° West 425 489 28,500 1,839 Climbing Los Angeles Center
Thu 08:24:08 PM 34.4069 -119.6483 315° West 433 498 30,100 1,548 Climbing Los Angeles Center
Thu 08:25:10 PM 34.4931 -119.7539 315° West 439 505 31,700 1,488 Climbing Los Angeles Center
Thu 08:26:13 PM 34.5836 -119.8561 317° Northwest 443 510 33,200 1,104 Climbing Los Angeles Center
Thu 08:27:15 PM 34.6794 -119.9556 320° Northwest 446 513 34,000 387 Climbing Los Angeles Center
Thu 08:28:17 PM 34.7906 -120.0769 318° Northwest 447 514 34,000  Level Los Angeles Center
Thu 08:29:20 PM 34.8747 -120.1686 318° Northwest 450 518 34,000  Level Los Angeles Center
Thu 08:30:22 PM 34.9650 -120.2683 318° Northwest 445 512 34,000  Level Los Angeles Center
Thu 08:31:25 PM 35.0739 -120.3897 318° Northwest 446 513 34,000  Level Los Angeles Center
Thu 08:32:27 PM 35.1647 -120.4906 318° Northwest 445 512 34,000  Level Los Angeles Center
Thu 08:33:29 PM 35.2544 -120.5922 317° Northwest 444 511 34,000  Level Los Angeles Center
Thu 08:34:32 PM 35.3450 -120.6944 317° Northwest 444 511 34,000 -66 Level Los Angeles Center
Thu 08:35:00 PM 35.3972 -120.7536 317° Northwest 444 511 33,900  Descending Oakland Center
Thu 08:36:01 PM 35.4872 -120.8553 317° Northwest 440 506 34,000  Climbing Oakland Center
Thu 08:37:03 PM 35.5786 -120.9575 318° Northwest 442 509 33,900  Descending Oakland Center
Thu 08:38:04 PM 35.6686 -121.0594 317° Northwest 441 507 34,000  Climbing Oakland Center
Thu 08:39:06 PM 35.7597 -121.1611 318° Northwest 442 509 33,900 -390 Descending Oakland Center
Thu 08:40:07 PM 35.8628 -121.2436 327° Northwest 443 510 33,200 -829 Descending Oakland Center
Thu 08:41:09 PM 35.9636 -121.3250 327° Northwest 436 502 32,200 -1,122 Descending Oakland Center
Thu 08:42:10 PM 36.0808 -121.4217 326° Northwest 426 490 30,900 -1,220 Descending Oakland Center
Thu 08:43:12 PM 36.1786 -121.4989 327° Northwest 420 483 29,700 -1,561 Descending Oakland Center
Thu 08:44:13 PM 36.2703 -121.5769 326° Northwest 402 463 27,700 -1,967 Descending Oakland Center
Thu 08:45:14 PM 36.3625 -121.6508 327° Northwest 398 458 25,700 -1,951 Descending Oakland Center
Thu 08:46:16 PM 36.4492 -121.7219 327° Northwest 381 438 23,700 -2,000 Descending Oakland Center
Thu 08:46:38 PM 36.4833 -121.7500 327° Northwest 374 430 22,900 -1,976 Descending Northern Cal TRACON
Thu 08:47:38 PM 36.5667 -121.8167 327° Northwest 357 411 21,000 -1,850 Descending Northern Cal TRACON
Thu 08:48:38 PM 36.6500 -121.8833 327° Northwest 347 399 19,200 -1,700 Descending Northern Cal TRACON
Thu 08:49:38 PM 36.7333 -121.9500 327° Northwest 339 390 17,600 -1,750 Descending Northern Cal TRACON
Thu 08:50:38 PM 36.8167 -121.9833 342° North 336 387 15,700 -1,900 Descending Northern Cal TRACON
Thu 08:51:38 PM 36.9167 -122.0000 352° North 332 382 13,800 -1,698 Descending Northern Cal TRACON
Thu 08:52:24 PM 36.9608 -122.0239 337° Northwest 330 380 12,700 -1,514 Descending Oakland Center
Thu 08:53:25 PM 37.0689 -122.0531 348° North 330 380 11,100 -1,268 Descending Oakland Center
Thu 08:54:27 PM 37.1564 -122.0728 350° North 324 373 10,100 -1,122 Descending Oakland Center
Thu 08:55:28 PM 37.2369 -122.0956 347° North 304 350 8,800 -1,328 Descending Oakland Center
Thu 08:56:29 PM 37.3153 -122.1133 350° North 290 334 7,400 -1,377 Descending Oakland Center
Thu 08:57:30 PM 37.3903 -122.1333 348° North 278 320 6,000 -1,463 Descending Oakland Center
Thu 08:58:32 PM 37.4628 -122.1528 348° North 268 308 4,400 -1,805 Descending Oakland Center
Thu 08:59:33 PM 37.5286 -122.1739 346° North 256 295 2,300 -1,328 Descending Oakland Center
Thu 09:00:34 PM 37.5589 -122.2356 302° West 221 254 1,700 -590 Descending Oakland Center

Login

Don't have an account? Register now (free) for customized features, flight alerts, and more!